Time;durP1;ratioP1;P1;durP2;ratioP2;P2;SDS_P1;SDS_P2;PMS_P1;PMS_P2;Temp;Humidity;BMP_temperature;BMP_pressure;BME280_temperature;BME280_humidity;BME280_pressure;Samples;Min_cycle;Max_cycle;Signal;HPM_P1;HPM_P2
2021/12/21 00:00:17;;;;;;;1.88;1.20;;;19.20;39.60;;;;;;5016245;28;20030;-71
2021/12/21 00:02:48;;;;;;;1.90;1.23;;;19.20;39.60;;;;;;5016289;28;20024;-71
2021/12/21 00:05:20;;;;;;;1.83;1.33;;;19.20;40.50;;;;;;5014868;28;20025;-71
2021/12/21 00:07:49;;;;;;;2.65;1.40;;;19.20;39.60;;;;;;5015210;28;20026;-71
2021/12/21 00:10:15;;;;;;;2.78;1.55;;;19.20;39.60;;;;;;5014873;28;20033;-71
2021/12/21 00:12:50;;;;;;;2.22;1.40;;;19.20;39.60;;;;;;5013816;28;20033;-71
2021/12/21 00:15:23;;;;;;;2.05;1.10;;;19.20;39.50;;;;;;5013549;28;20052;-71
2021/12/21 00:17:57;;;;;;;3.33;1.48;;;19.10;39.50;;;;;;5008788;28;20471;-71
2021/12/21 00:25:20;;;;;;;1.90;1.30;;;19.10;39.40;;;;;;4995356;28;20030;-72
2021/12/21 00:27:47;;;;;;;2.42;1.30;;;19.10;39.40;;;;;;4995058;28;20030;-72
2021/12/21 00:30:14;;;;;;;1.98;1.48;;;19.10;39.40;;;;;;4994911;28;20033;-72
2021/12/21 00:32:39;;;;;;;3.17;1.40;;;19.10;39.40;;;;;;4993840;28;20478;-72
2021/12/21 00:35:06;;;;;;;2.03;1.35;;;19.10;39.40;;;;;;4995070;28;20110;-72
2021/12/21 00:37:31;;;;;;;2.60;1.23;;;19.10;39.40;;;;;;4993536;28;20046;-72
2021/12/21 00:39:57;;;;;;;2.25;1.38;;;19.10;39.40;;;;;;4994830;28;20526;-71
2021/12/21 00:42:22;;;;;;;2.05;1.42;;;19.10;39.40;;;;;;4994808;28;20019;-71
2021/12/21 00:44:48;;;;;;;1.80;1.42;;;19.10;39.30;;;;;;4994814;28;20027;-71
2021/12/21 00:47:15;;;;;;;2.70;1.40;;;19.10;39.30;;;;;;4993116;28;20073;-71
2021/12/21 00:49:45;;;;;;;2.13;1.40;;;19.10;39.30;;;;;;4994719;28;20030;-71
2021/12/21 00:52:12;;;;;;;1.42;1.08;;;19.10;39.30;;;;;;4994650;28;20030;-71
2021/12/21 00:54:37;;;;;;;2.53;1.35;;;19.10;39.20;;;;;;4994576;28;20529;-72
2021/12/21 00:57:04;;;;;;;2.17;1.40;;;19.10;39.20;;;;;;4994406;28;20026;-71
2021/12/21 00:59:31;;;;;;;3.25;1.50;;;19.00;39.20;;;;;;5001250;28;20022;-71
2021/12/21 01:01:56;;;;;;;1.95;1.35;;;19.00;39.10;;;;;;5014130;28;20529;-71
2021/12/21 01:04:28;;;;;;;2.22;1.40;;;19.00;39.10;;;;;;4979592;28;1012882;-72
2021/12/21 01:12:08;;;;;;;2.03;1.40;;;19.00;39.10;;;;;;5015005;28;20034;-71
2021/12/21 01:17:17;;;;;;;1.52;1.10;;;19.00;39.10;;;;;;5015191;28;20038;-72
2021/12/21 01:19:47;;;;;;;1.85;1.33;;;19.00;39.00;;;;;;4995249;28;20424;-72
2021/12/21 01:22:24;;;;;;;2.25;1.42;;;19.00;39.00;;;;;;4995243;28;20022;-72
2021/12/21 01:25:09;;;;;;;3.28;1.30;;;19.00;39.00;;;;;;4995164;28;20077;-72
2021/12/21 01:28:14;;;;;;;2.58;1.55;;;18.90;38.90;;;;;;5010362;28;20022;-71
2021/12/21 01:30:44;;;;;;;2.63;1.85;;;18.90;38.90;;;;;;4992979;28;20438;-72
2021/12/21 01:35:56;;;;;;;2.40;1.30;;;18.90;38.90;;;;;;4995318;28;20104;-72
2021/12/21 01:38:43;;;;;;;2.20;1.60;;;18.90;38.90;;;;;;4994799;28;20069;-72
2021/12/21 01:41:24;;;;;;;2.40;1.50;;;18.90;38.90;;;;;;4994758;28;20018;-72
2021/12/21 01:44:04;;;;;;;2.95;1.48;;;18.90;38.80;;;;;;4994835;28;20549;-72
2021/12/21 01:51:57;;;;;;;3.10;1.52;;;18.80;38.80;;;;;;4994644;28;20058;-72
2021/12/21 01:54:23;;;;;;;2.10;1.25;;;18.80;38.80;;;;;;4993372;28;20015;-72
2021/12/21 01:56:49;;;;;;;2.63;1.60;;;18.80;38.80;;;;;;4994526;28;20022;-72
2021/12/21 01:59:14;;;;;;;2.00;1.30;;;18.80;38.70;;;;;;4998447;28;20025;-71
2021/12/21 02:01:41;;;;;;;2.65;1.50;;;18.80;38.70;;;;;;5014032;28;20036;-71
2021/12/21 02:04:08;;;;;;;2.13;1.50;;;18.80;38.70;;;;;;5013651;28;20042;-71
2021/12/21 02:06:34;;;;;;;2.53;1.50;;;18.80;38.60;;;;;;5013873;28;20473;-71
2021/12/21 02:08:59;;;;;;;2.30;1.50;;;18.80;38.60;;;;;;5012740;28;20072;-72
2021/12/21 02:11:25;;;;;;;3.03;1.52;;;18.80;38.60;;;;;;5012586;28;20447;-71
2021/12/21 02:13:52;;;;;;;2.08;1.27;;;18.80;38.60;;;;;;5013744;28;20049;-72
2021/12/21 02:16:29;;;;;;;2.70;1.42;;;18.80;38.60;;;;;;5013871;28;20170;-71
2021/12/21 02:19:40;;;;;;;2.40;1.52;;;18.80;38.50;;;;;;4998869;28;20057;-71
2021/12/21 02:21:49;;;;;;;2.13;1.33;;;18.80;38.50;;;;;;4988479;28;20054;-71
2021/12/21 02:24:20;;;;;;;2.65;1.40;;;18.70;38.50;;;;;;4994108;28;20101;-71
2021/12/21 02:27:06;;;;;;;3.20;1.60;;;18.80;38.50;;;;;;4994114;28;20081;-71
2021/12/21 02:29:34;;;;;;;2.47;1.48;;;18.80;38.50;;;;;;4994072;28;20126;-71
2021/12/21 02:32:01;;;;;;;2.75;1.60;;;18.70;38.40;;;;;;4993817;28;20076;-72
2021/12/21 02:34:26;;;;;;;2.67;1.40;;;18.70;38.40;;;;;;4992661;28;20019;-72
2021/12/21 02:36:55;;;;;;;1.90;1.55;;;18.70;38.30;;;;;;4993758;28;20041;-72
2021/12/21 02:39:23;;;;;;;2.85;1.70;;;18.70;38.30;;;;;;4993801;28;20022;-72
2021/12/21 02:41:49;;;;;;;1.83;1.30;;;18.70;38.30;;;;;;4993850;28;20029;-72
2021/12/21 02:44:15;;;;;;;2.80;1.60;;;18.70;38.30;;;;;;4993692;28;20031;-71
2021/12/21 02:46:42;;;;;;;2.10;1.50;;;18.70;38.20;;;;;;4993650;28;20026;-71
2021/12/21 02:49:09;;;;;;;2.53;1.80;;;18.70;38.30;;;;;;4993610;28;20439;-71
2021/12/21 02:51:39;;;;;;;2.47;1.50;;;18.70;38.20;;;;;;4993714;28;20022;-72
2021/12/21 02:54:05;;;;;;;2.85;1.23;;;18.70;38.20;;;;;;4993383;28;20022;-71
2021/12/21 02:56:31;;;;;;;3.10;1.40;;;18.70;38.20;;;;;;4993488;28;20030;-72
2021/12/21 02:58:56;;;;;;;2.72;1.60;;;18.70;38.20;;;;;;4995712;28;20478;-72
2021/12/21 03:01:22;;;;;;;2.63;1.70;;;18.70;38.10;;;;;;5013066;28;20026;-71
2021/12/21 03:03:48;;;;;;;2.00;1.30;;;18.70;38.10;;;;;;5012626;28;20042;-71
2021/12/21 03:06:42;;;;;;;2.97;1.60;;;18.70;38.10;;;;;;5011915;28;20022;-71
2021/12/21 03:08:59;;;;;;;2.90;1.30;;;18.70;38.10;;;;;;5012716;28;20033;-72
2021/12/21 03:11:47;;;;;;;2.67;1.77;;;18.70;38.10;;;;;;5012928;28;20441;-72
2021/12/21 03:14:13;;;;;;;3.33;1.73;;;18.70;38.00;;;;;;5012879;28;20022;-72
2021/12/21 03:16:39;;;;;;;3.22;1.38;;;18.60;38.00;;;;;;5013235;28;20060;-72
2021/12/21 03:19:07;;;;;;;3.60;1.70;;;18.60;38.00;;;;;;4996573;28;20022;-72
2021/12/21 03:21:34;;;;;;;1.95;1.40;;;18.60;37.90;;;;;;4993224;28;20061;-72
2021/12/21 03:24:00;;;;;;;2.80;1.65;;;18.60;37.90;;;;;;4991789;28;20022;-72
2021/12/21 03:26:26;;;;;;;2.45;1.35;;;18.60;37.90;;;;;;4991966;28;20121;-71
2021/12/21 03:28:53;;;;;;;2.35;1.30;;;18.60;37.90;;;;;;4992970;28;20479;-71
2021/12/21 03:31:19;;;;;;;3.00;1.55;;;18.60;37.90;;;;;;4993291;28;20102;-71
2021/12/21 03:33:44;;;;;;;2.00;1.40;;;18.60;37.80;;;;;;4991783;28;20054;-72
2021/12/21 03:36:10;;;;;;;3.65;1.77;;;18.60;37.80;;;;;;4993119;28;20018;-71
2021/12/21 03:38:37;;;;;;;2.35;1.45;;;18.50;37.70;;;;;;4992969;28;20080;-71
2021/12/21 03:41:09;;;;;;;2.28;1.48;;;18.60;37.80;;;;;;4993206;28;20150;-71
2021/12/21 03:43:35;;;;;;;2.50;1.47;;;18.60;37.70;;;;;;4993032;28;20025;-71
2021/12/21 03:46:08;;;;;;;3.20;1.45;;;18.50;37.70;;;;;;4993151;28;20627;-72
2021/12/21 03:48:35;;;;;;;1.83;1.33;;;18.50;37.70;;;;;;4992958;28;20033;-72
2021/12/21 03:51:01;;;;;;;2.40;1.27;;;18.50;37.70;;;;;;4991862;28;20032;-71
2021/12/21 03:53:27;;;;;;;2.28;1.48;;;18.50;37.60;;;;;;4992862;28;20039;-72
2021/12/21 03:56:04;;;;;;;3.72;1.65;;;18.50;37.60;;;;;;4993011;28;20487;-71
2021/12/21 03:58:30;;;;;;;2.22;1.38;;;18.50;37.60;;;;;;4992768;28;20024;-71
2021/12/21 04:00:56;;;;;;;2.42;1.42;;;18.50;37.60;;;;;;5011680;28;20026;-71
2021/12/21 04:03:21;;;;;;;2.97;1.60;;;18.50;37.60;;;;;;5012718;28;20065;-71
2021/12/21 04:05:47;;;;;;;3.65;1.75;;;18.50;37.50;;;;;;5012464;28;20033;-72
2021/12/21 04:08:12;;;;;;;1.60;1.20;;;18.50;37.50;;;;;;5012430;28;20034;-71
2021/12/21 04:10:38;;;;;;;2.13;1.30;;;18.50;37.50;;;;;;5012630;28;20026;-71
2021/12/21 04:13:03;;;;;;;1.73;1.52;;;18.50;37.50;;;;;;5010965;28;20029;-71
2021/12/21 04:15:32;;;;;;;3.40;1.50;;;18.40;37.50;;;;;;5012335;28;20441;-71
2021/12/21 04:17:57;;;;;;;1.95;1.30;;;18.50;37.50;;;;;;5005193;28;20033;-71
2021/12/21 04:20:23;;;;;;;1.83;1.48;;;18.40;37.40;;;;;;4992727;28;20022;-71
2021/12/21 04:22:49;;;;;;;1.92;1.52;;;18.40;37.40;;;;;;4995999;28;20474;-71
2021/12/21 04:25:15;;;;;;;3.03;1.50;;;18.40;37.50;;;;;;4994926;28;20019;-71
2021/12/21 04:27:40;;;;;;;2.10;1.60;;;18.40;37.30;;;;;;4996317;28;20041;-71
2021/12/21 04:30:06;;;;;;;2.50;1.40;;;18.40;37.30;;;;;;4996152;28;20030;-71
2021/12/21 04:32:32;;;;;;;2.05;1.45;;;18.40;37.30;;;;;;4996197;28;20105;-71
2021/12/21 04:34:57;;;;;;;2.75;1.50;;;18.40;37.30;;;;;;4996024;28;20031;-71
2021/12/21 04:37:24;;;;;;;2.17;1.40;;;18.40;37.30;;;;;;4995841;28;20031;-71
2021/12/21 04:39:59;;;;;;;2.08;1.30;;;18.40;37.30;;;;;;4995984;28;20025;-71
2021/12/21 04:42:25;;;;;;;2.20;1.30;;;18.40;37.30;;;;;;4994784;28;20073;-71
2021/12/21 04:44:50;;;;;;;2.03;1.40;;;18.40;37.30;;;;;;4995888;28;20030;-71
2021/12/21 04:47:16;;;;;;;2.08;1.20;;;18.40;37.20;;;;;;4995876;28;20030;-71
2021/12/21 04:49:41;;;;;;;2.15;1.30;;;18.30;37.10;;;;;;4995755;28;20038;-71
2021/12/21 04:52:07;;;;;;;2.25;1.38;;;18.40;37.20;;;;;;4994556;28;20053;-71
2021/12/21 04:54:33;;;;;;;2.40;1.40;;;18.30;37.10;;;;;;4995686;28;20026;-72
2021/12/21 04:56:58;;;;;;;2.45;1.60;;;18.30;37.10;;;;;;4995564;28;20089;-71
2021/12/21 04:59:24;;;;;;;2.40;1.45;;;18.30;37.10;;;;;;5000094;28;20117;-71
2021/12/21 05:01:52;;;;;;;1.83;1.45;;;18.30;37.10;;;;;;5013964;28;20432;-71
2021/12/21 05:04:18;;;;;;;2.00;1.42;;;18.30;37.10;;;;;;5014800;28;20434;-71
2021/12/21 05:06:43;;;;;;;1.73;1.40;;;18.30;37.10;;;;;;5015063;28;20025;-72
2021/12/21 05:09:22;;;;;;;2.42;1.30;;;18.30;37.00;;;;;;5015114;28;20037;-71
2021/12/21 05:11:48;;;;;;;2.22;1.48;;;18.30;37.00;;;;;;5013531;28;20024;-71
2021/12/21 05:14:13;;;;;;;2.70;1.42;;;18.30;37.00;;;;;;5015097;28;20026;-71
2021/12/21 05:16:39;;;;;;;3.65;1.63;;;18.30;37.00;;;;;;5014775;28;20022;-71
2021/12/21 05:19:05;;;;;;;2.95;1.60;;;18.30;37.00;;;;;;4998606;28;20025;-71
2021/12/21 05:21:31;;;;;;;2.97;1.30;;;18.30;37.00;;;;;;4995215;28;20022;-71
2021/12/21 05:23:57;;;;;;;1.95;1.35;;;18.30;36.90;;;;;;4993850;28;20030;-71
2021/12/21 05:26:22;;;;;;;2.80;1.40;;;18.30;36.90;;;;;;4995164;28;20084;-71
2021/12/21 05:28:48;;;;;;;2.72;1.73;;;18.20;37.70;;;;;;4993857;28;20057;-71
2021/12/21 05:31:14;;;;;;;2.08;1.48;;;18.30;36.80;;;;;;4994965;28;20031;-71
2021/12/21 05:33:39;;;;;;;2.15;1.30;;;18.20;36.80;;;;;;4993985;28;20384;-72
2021/12/21 05:36:05;;;;;;;3.08;1.25;;;18.20;36.70;;;;;;4995051;28;20023;-72
2021/12/21 05:38:33;;;;;;;2.97;1.40;;;18.20;36.80;;;;;;4994983;28;20114;-71
2021/12/21 05:41:02;;;;;;;2.28;1.55;;;18.20;36.70;;;;;;4994848;28;20557;-71
2021/12/21 05:43:28;;;;;;;2.60;1.40;;;18.20;36.70;;;;;;4994824;28;20022;-71
2021/12/21 05:45:54;;;;;;;3.30;1.60;;;18.20;36.70;;;;;;4994754;28;20065;-71
2021/12/21 05:48:20;;;;;;;3.55;1.65;;;18.30;36.70;;;;;;4994794;28;20030;-71
2021/12/21 05:50:45;;;;;;;2.05;1.27;;;18.30;36.60;;;;;;4994684;28;20034;-71
2021/12/21 05:53:11;;;;;;;2.85;1.50;;;18.30;36.50;;;;;;4994592;28;20022;-71
2021/12/21 05:55:37;;;;;;;2.20;1.52;;;18.30;36.50;;;;;;4994587;28;20027;-71
2021/12/21 05:58:03;;;;;;;2.47;1.60;;;18.40;36.40;;;;;;4994523;28;20105;-71
2021/12/21 06:00:31;;;;;;;2.67;1.30;;;18.40;36.40;;;;;;5008968;28;20504;-71
2021/12/21 06:02:57;;;;;;;2.03;1.45;;;18.50;36.30;;;;;;5013749;28;20045;-71
2021/12/21 06:05:23;;;;;;;2.63;1.30;;;18.60;36.30;;;;;;5014067;28;20018;-71
2021/12/21 06:07:52;;;;;;;2.50;1.65;;;18.60;36.30;;;;;;5014074;28;20026;-71
2021/12/21 06:10:25;;;;;;;2.30;1.70;;;18.70;36.20;;;;;;5013971;28;20029;-71
2021/12/21 06:24:05;;;;;;;1.30;1.17;;;19.10;35.90;;;;;;4994355;28;20041;-71
2021/12/21 06:26:21;;;;;;;3.42;1.75;;;19.10;35.90;;;;;;4993872;28;20067;-71
2021/12/21 06:28:47;;;;;;;3.08;1.45;;;19.20;35.70;;;;;;4994056;28;20112;-71
2021/12/21 06:31:14;;;;;;;2.40;1.60;;;19.20;35.60;;;;;;4993863;28;20030;-71
2021/12/21 06:33:40;;;;;;;2.45;1.40;;;19.30;35.60;;;;;;4993984;28;20026;-71
2021/12/21 06:36:07;;;;;;;3.30;1.70;;;19.40;35.60;;;;;;4992510;28;20018;-71
2021/12/21 06:38:34;;;;;;;1.83;1.33;;;19.50;35.50;;;;;;4993808;28;20033;-71
2021/12/21 06:41:00;;;;;;;4.13;1.60;;;19.50;35.40;;;;;;4993690;28;20023;-71
2021/12/21 06:43:25;;;;;;;1.95;1.33;;;19.60;35.30;;;;;;4992395;28;20023;-72
2021/12/21 06:46:09;;;;;;;2.13;1.42;;;19.60;35.10;;;;;;4993431;28;20077;-71
2021/12/21 06:51:27;;;;;;;2.67;1.42;;;19.70;35.10;;;;;;4993679;28;20128;-71
2021/12/21 06:53:56;;;;;;;1.92;1.40;;;19.80;35.10;;;;;;4993653;28;20070;-71
2021/12/21 06:56:23;;;;;;;2.53;1.50;;;19.90;35.00;;;;;;4993527;28;20026;-72
2021/12/21 06:58:50;;;;;;;2.22;1.38;;;19.90;35.00;;;;;;4994572;28;20034;-71
2021/12/21 07:01:16;;;;;;;2.38;1.40;;;20.00;34.90;;;;;;5013045;28;20018;-72
2021/12/21 07:03:43;;;;;;;2.60;1.65;;;20.00;34.80;;;;;;5012762;28;20499;-71
2021/12/21 07:06:09;;;;;;;2.60;1.50;;;20.00;34.80;;;;;;5011773;28;20014;-71
2021/12/21 07:08:46;;;;;;;2.80;1.40;;;20.10;34.70;;;;;;5011908;28;20026;-72
2021/12/21 07:19:28;;;;;;;2.40;1.38;;;20.20;34.50;;;;;;4994557;28;20120;-72
2021/12/21 07:21:54;;;;;;;2.42;1.45;;;20.30;34.70;;;;;;4993322;28;20483;-72
2021/12/21 07:24:20;;;;;;;2.58;1.92;;;20.30;34.50;;;;;;4993349;28;20014;-72
2021/12/21 07:26:45;;;;;;;1.98;1.08;;;20.40;34.60;;;;;;4993337;28;20410;-71
2021/12/21 07:29:11;;;;;;;1.70;1.20;;;20.40;34.50;;;;;;4992128;28;20026;-71
2021/12/21 07:31:36;;;;;;;2.08;1.27;;;20.40;34.50;;;;;;4991865;28;20114;-71
2021/12/21 07:34:03;;;;;;;2.25;1.30;;;20.50;34.50;;;;;;4992050;28;20019;-72
2021/12/21 07:36:33;;;;;;;2.28;1.50;;;20.50;34.50;;;;;;4993126;28;20122;-71
2021/12/21 07:39:06;;;;;;;1.77;1.38;;;20.50;34.40;;;;;;4993279;28;20030;-71
2021/12/21 07:41:32;;;;;;;2.08;1.50;;;20.60;34.30;;;;;;4993186;28;20029;-72
2021/12/21 07:43:57;;;;;;;2.45;1.25;;;20.50;34.40;;;;;;4991869;28;20027;-71
2021/12/21 07:46:23;;;;;;;2.20;1.10;;;20.60;34.30;;;;;;4991957;28;20019;-71
2021/12/21 07:48:49;;;;;;;2.33;1.50;;;20.60;34.30;;;;;;4992976;28;20030;-71
2021/12/21 07:51:15;;;;;;;2.10;1.33;;;20.60;34.20;;;;;;4993149;28;20475;-71
2021/12/21 07:53:42;;;;;;;2.33;1.30;;;20.70;34.20;;;;;;4993009;28;20022;-71
2021/12/21 07:56:08;;;;;;;1.85;1.23;;;20.70;34.20;;;;;;4993960;28;20522;-71
2021/12/21 07:58:34;;;;;;;2.78;1.30;;;20.70;34.40;;;;;;4996728;28;20026;-71
2021/12/21 08:01:03;;;;;;;1.60;1.20;;;20.70;34.10;;;;;;5014507;28;20115;-72
2021/12/21 08:03:30;;;;;;;1.40;1.20;;;20.80;34.10;;;;;;5016116;28;20042;-72
2021/12/21 08:05:58;;;;;;;2.28;1.30;;;20.80;34.10;;;;;;5016512;28;20099;-72
2021/12/21 08:08:27;;;;;;;1.45;1.27;;;20.80;34.10;;;;;;5016480;28;20390;-72
2021/12/21 08:11:08;;;;;;;1.83;1.20;;;20.80;34.00;;;;;;5016488;28;20101;-72
2021/12/21 08:13:34;;;;;;;1.52;1.20;;;20.80;34.00;;;;;;5016262;28;20425;-71
2021/12/21 08:16:00;;;;;;;1.83;1.25;;;20.90;34.00;;;;;;5016329;28;20030;-72
2021/12/21 08:18:25;;;;;;;1.65;1.10;;;20.90;34.10;;;;;;5014801;28;20041;-72
2021/12/21 08:20:51;;;;;;;1.92;1.40;;;20.90;34.00;;;;;;5016286;28;20072;-71
2021/12/21 08:23:17;;;;;;;1.63;1.30;;;20.90;34.00;;;;;;5016004;28;20573;-71
2021/12/21 08:25:43;;;;;;;2.00;1.45;;;21.00;33.90;;;;;;5016134;28;20022;-71
2021/12/21 08:28:08;;;;;;;1.75;1.25;;;20.90;33.90;;;;;;5016038;28;20508;-71
2021/12/21 08:30:34;;;;;;;2.30;1.15;;;21.00;33.90;;;;;;5016063;28;20057;-71
2021/12/21 08:33:00;;;;;;;1.30;1.20;;;21.00;33.90;;;;;;5015972;28;20025;-72
2021/12/21 08:35:27;;;;;;;3.40;1.52;;;21.00;33.90;;;;;;5015755;28;20034;-72
2021/12/21 08:38:00;;;;;;;1.95;1.33;;;21.00;33.90;;;;;;5015678;28;20045;-72
2021/12/21 08:40:25;;;;;;;2.50;1.30;;;21.00;33.80;;;;;;5015996;28;20022;-72
2021/12/21 08:42:52;;;;;;;2.95;1.50;;;21.10;33.90;;;;;;5015753;28;20037;-72
2021/12/21 08:45:18;;;;;;;1.73;1.38;;;21.10;33.80;;;;;;5015885;28;20498;-72
2021/12/21 08:47:44;;;;;;;1.88;1.38;;;21.10;33.80;;;;;;5015595;28;20036;-72
2021/12/21 08:50:13;;;;;;;3.33;2.05;;;21.10;33.80;;;;;;5016382;28;20105;-72
2021/12/21 08:52:39;;;;;;;4.70;2.17;;;21.20;33.00;;;;;;5016904;28;20379;-72
2021/12/21 08:55:07;;;;;;;3.20;1.90;;;21.10;32.70;;;;;;5021210;28;20017;-72
2021/12/21 08:57:33;;;;;;;4.50;2.25;;;21.10;32.50;;;;;;5025427;28;20118;-72
2021/12/21 08:59:59;;;;;;;3.40;2.00;;;21.00;32.20;;;;;;5016631;28;20022;-72
2021/12/21 09:02:28;;;;;;;3.33;2.20;;;21.00;32.10;;;;;;5015996;28;20703;-72
2021/12/21 09:04:53;;;;;;;4.63;2.10;;;21.00;32.00;;;;;;5021503;28;20038;-72
2021/12/21 09:07:19;;;;;;;3.70;2.50;;;21.00;31.80;;;;;;5035815;28;20121;-72
2021/12/21 09:09:44;;;;;;;3.63;2.30;;;21.00;31.60;;;;;;5030019;28;20038;-71
2021/12/21 09:12:10;;;;;;;3.60;2.20;;;20.90;31.60;;;;;;5024704;28;20041;-71
2021/12/21 09:14:35;;;;;;;3.97;2.50;;;20.90;31.60;;;;;;5014936;28;20117;-72
2021/12/21 09:17:02;;;;;;;4.63;2.45;;;20.90;31.40;;;;;;5013932;28;20129;-72
2021/12/21 09:19:28;;;;;;;3.38;2.42;;;20.90;31.40;;;;;;5015298;28;20085;-72
2021/12/21 09:21:54;;;;;;;5.95;2.72;;;20.80;31.50;;;;;;5017226;28;20497;-71
2021/12/21 09:24:20;;;;;;;5.18;2.80;;;20.80;31.50;;;;;;5015230;28;20018;-72
2021/12/21 09:26:45;;;;;;;3.58;2.55;;;20.80;31.30;;;;;;5014965;28;20497;-72
2021/12/21 09:29:11;;;;;;;3.72;2.63;;;20.80;31.30;;;;;;5014927;28;20037;-72
2021/12/21 09:31:36;;;;;;;5.35;2.92;;;20.80;31.20;;;;;;5013501;28;20109;-72
2021/12/21 09:34:03;;;;;;;4.57;2.75;;;20.80;31.10;;;;;;5015119;28;20064;-72
2021/12/21 09:36:29;;;;;;;4.18;2.55;;;20.80;30.90;;;;;;5014857;28;20022;-71
2021/12/21 09:38:55;;;;;;;4.32;2.70;;;20.80;31.00;;;;;;5014678;28;20096;-72
2021/12/21 09:41:22;;;;;;;3.72;2.53;;;20.80;30.90;;;;;;5015087;28;20405;-72
2021/12/21 09:43:47;;;;;;;4.50;2.70;;;20.80;30.90;;;;;;5014637;28;20026;-72
2021/12/21 09:46:13;;;;;;;3.65;2.45;;;20.80;30.80;;;;;;5015266;28;20026;-72
2021/12/21 09:48:39;;;;;;;3.72;2.60;;;20.70;30.70;;;;;;5014715;28;20022;-72
2021/12/21 09:51:05;;;;;;;4.45;2.90;;;20.80;30.80;;;;;;5015167;28;20535;-72
2021/12/21 09:53:32;;;;;;;6.55;3.13;;;20.70;30.60;;;;;;5016404;28;20044;-72
2021/12/21 09:55:57;;;;;;;4.10;2.97;;;20.80;30.60;;;;;;5018171;28;20040;-72
2021/12/21 09:58:23;;;;;;;4.63;2.85;;;20.80;30.60;;;;;;5019142;28;20026;-71
2021/12/21 10:00:49;;;;;;;4.30;3.10;;;20.80;30.60;;;;;;5018129;28;20018;-72
2021/12/21 10:03:15;;;;;;;6.80;3.08;;;20.80;30.50;;;;;;5017090;28;20512;-72
2021/12/21 10:05:43;;;;;;;5.18;2.90;;;20.80;30.60;;;;;;5016033;28;20024;-72
2021/12/21 10:08:15;;;;;;;5.10;3.15;;;20.80;30.50;;;;;;5014742;28;20064;-72
2021/12/21 10:10:43;;;;;;;4.72;2.67;;;20.80;30.30;;;;;;5014718;28;20053;-71
2021/12/21 10:13:16;;;;;;;4.72;2.90;;;20.70;30.40;;;;;;5014306;28;20029;-71
2021/12/21 10:15:49;;;;;;;5.85;3.30;;;20.80;30.40;;;;;;5016443;28;20093;-71
2021/12/21 10:18:26;;;;;;;4.63;2.85;;;20.80;30.30;;;;;;5025608;28;20028;-71
2021/12/21 10:20:53;;;;;;;5.80;3.10;;;20.70;30.10;;;;;;5015832;28;20054;-71
2021/12/21 10:23:25;;;;;;;9.25;3.38;;;20.70;30.10;;;;;;5014728;28;20022;-71
2021/12/21 10:25:58;;;;;;;4.77;3.40;;;20.70;30.00;;;;;;5016241;28;20438;-71
2021/12/21 10:28:39;;;;;;;5.05;3.13;;;20.70;29.90;;;;;;5015818;28;20025;-71
2021/12/21 10:31:11;;;;;;;5.53;3.70;;;20.70;29.70;;;;;;5014798;28;20041;-71
2021/12/21 10:33:38;;;;;;;7.75;3.63;;;20.60;29.60;;;;;;5015213;28;20041;-71
2021/12/21 10:36:07;;;;;;;6.20;3.70;;;20.60;29.60;;;;;;5015121;28;20391;-71
2021/12/21 10:38:42;;;;;;;5.22;3.10;;;20.60;29.50;;;;;;5013729;28;20026;-71
2021/12/21 10:41:11;;;;;;;5.97;3.33;;;20.60;29.50;;;;;;5014869;28;20482;-71
2021/12/21 10:43:37;;;;;;;6.82;3.72;;;20.50;29.30;;;;;;5014142;28;20390;-71
2021/12/21 10:46:03;;;;;;;6.30;3.47;;;20.50;29.30;;;;;;5014965;28;20022;-71
2021/12/21 10:48:30;;;;;;;7.22;3.50;;;20.50;29.20;;;;;;5014411;28;20030;-71
2021/12/21 10:50:56;;;;;;;7.50;3.72;;;20.50;29.20;;;;;;5014859;28;20104;-71
2021/12/21 10:53:27;;;;;;;7.15;4.10;;;20.50;29.10;;;;;;5012707;28;20050;-71
2021/12/21 10:56:07;;;;;;;5.85;3.47;;;20.50;29.00;;;;;;5013933;28;20025;-71
2021/12/21 10:58:39;;;;;;;6.82;3.90;;;20.40;28.80;;;;;;5013044;28;20490;-71
2021/12/21 11:01:08;;;;;;;8.40;3.50;;;20.40;28.90;;;;;;5012395;28;20033;-71
2021/12/21 11:03:49;;;;;;;7.65;3.97;;;20.40;28.90;;;;;;5011888;28;20042;-71
2021/12/21 11:06:20;;;;;;;5.30;3.60;;;20.40;28.90;;;;;;5013660;28;20030;-71
2021/12/21 11:08:49;;;;;;;6.32;3.53;;;20.40;28.90;;;;;;5015369;28;20053;-71
2021/12/21 11:11:32;;;;;;;7.10;3.78;;;20.30;28.80;;;;;;5015497;28;20026;-71
2021/12/21 11:13:58;;;;;;;9.10;4.13;;;20.40;28.70;;;;;;5015971;28;20049;-71
2021/12/21 11:16:33;;;;;;;5.85;3.47;;;20.30;28.80;;;;;;5015632;28;20033;-71
2021/12/21 11:18:59;;;;;;;6.35;3.83;;;20.30;28.80;;;;;;5014583;28;20104;-71
2021/12/21 11:21:24;;;;;;;7.95;4.18;;;20.30;28.80;;;;;;5016547;28;20029;-71
2021/12/21 11:23:50;;;;;;;6.47;4.05;;;20.30;28.80;;;;;;5015099;28;20018;-71
2021/12/21 11:26:16;;;;;;;6.30;3.58;;;20.30;28.70;;;;;;5016584;28;20028;-71
2021/12/21 11:28:42;;;;;;;6.65;3.83;;;20.30;28.80;;;;;;5015368;28;20026;-71
2021/12/21 11:31:09;;;;;;;7.10;3.40;;;20.30;28.80;;;;;;5018339;28;20026;-71
2021/12/21 11:33:44;;;;;;;6.30;3.67;;;20.30;28.80;;;;;;5021163;28;20075;-71
2021/12/21 11:38:56;;;;;;;6.47;3.75;;;20.30;28.80;;;;;;5022271;28;20040;-71
2021/12/21 11:41:23;;;;;;;6.15;3.80;;;20.20;28.80;;;;;;5022703;28;20022;-71
2021/12/21 11:44:09;;;;;;;6.15;3.88;;;20.20;28.70;;;;;;5022008;28;20390;-71
2021/12/21 11:46:52;;;;;;;5.68;3.53;;;20.30;28.60;;;;;;5020890;28;20033;-71
2021/12/21 11:49:41;;;;;;;5.40;3.35;;;20.20;28.60;;;;;;5019527;28;20097;-71
2021/12/21 11:52:13;;;;;;;6.47;3.65;;;20.20;28.70;;;;;;5018702;28;20036;-71
2021/12/21 11:55:07;;;;;;;7.32;3.65;;;20.20;28.80;;;;;;5019885;28;20124;-71
2021/12/21 11:57:40;;;;;;;7.07;3.97;;;20.20;28.60;;;;;;4999962;28;20037;-71
2021/12/21 12:00:22;;;;;;;5.68;3.67;;;20.20;28.80;;;;;;5014125;28;20020;-71
2021/12/21 12:02:49;;;;;;;7.47;3.72;;;20.20;28.80;;;;;;5017878;28;20482;-71
2021/12/21 12:05:19;;;;;;;6.32;3.55;;;20.20;29.00;;;;;;5018735;28;20041;-71
2021/12/21 12:07:45;;;;;;;7.45;4.10;;;20.20;29.00;;;;;;5017491;28;20117;-71
2021/12/21 12:10:13;;;;;;;6.65;3.75;;;20.20;29.00;;;;;;5019030;28;20494;-71
2021/12/21 12:12:39;;;;;;;8.15;4.20;;;20.20;29.00;;;;;;5006965;28;20505;-71
2021/12/21 12:15:08;;;;;;;8.48;3.90;;;20.20;29.80;;;;;;5000211;28;20030;-71
2021/12/21 12:17:45;;;;;;;8.43;4.05;;;20.30;29.10;;;;;;4998183;28;20060;-71
2021/12/21 12:20:12;;;;;;;8.23;3.90;;;20.30;29.10;;;;;;4999001;28;20018;-71
2021/12/21 12:22:47;;;;;;;6.78;3.75;;;20.20;29.10;;;;;;5018234;28;20028;-71
2021/12/21 12:25:18;;;;;;;7.22;3.88;;;20.30;29.20;;;;;;5018820;28;20018;-71
2021/12/21 12:27:47;;;;;;;8.77;4.00;;;20.30;29.90;;;;;;5018399;28;20034;-71
2021/12/21 12:30:16;;;;;;;5.55;3.33;;;20.30;29.20;;;;;;5018189;28;20386;-71
2021/12/21 12:32:59;;;;;;;6.97;3.72;;;20.30;29.20;;;;;;5017233;28;20026;-71
2021/12/21 12:35:30;;;;;;;6.47;3.65;;;20.30;29.20;;;;;;5014970;28;20029;-71
2021/12/21 12:38:02;;;;;;;5.35;3.58;;;20.30;29.30;;;;;;5016653;28;20021;-72
2021/12/21 12:40:37;;;;;;;5.93;3.53;;;20.30;29.30;;;;;;5017691;28;20134;-71
2021/12/21 12:43:08;;;;;;;5.70;3.28;;;20.30;29.30;;;;;;5015602;28;20096;-71
2021/12/21 12:46:03;;;;;;;7.47;3.38;;;20.20;29.20;;;;;;5016225;28;20021;-71
2021/12/21 12:48:30;;;;;;;5.95;3.53;;;20.30;29.30;;;;;;5016445;28;20033;-71
2021/12/21 12:50:58;;;;;;;5.10;3.20;;;20.20;29.30;;;;;;5015919;28;20030;-71
2021/12/21 12:53:42;;;;;;;7.75;3.38;;;20.20;29.30;;;;;;5015301;28;20026;-71
2021/12/21 12:56:11;;;;;;;5.15;3.42;;;20.30;29.30;;;;;;5016893;28;20486;-71
2021/12/21 12:58:52;;;;;;;7.13;3.35;;;20.30;29.40;;;;;;5005161;28;20022;-71
2021/12/21 13:01:22;;;;;;;6.88;3.08;;;20.30;29.40;;;;;;5013939;28;20030;-71
2021/12/21 13:03:49;;;;;;;4.43;2.92;;;20.20;29.60;;;;;;5016734;28;20137;-71
2021/12/21 13:06:19;;;;;;;5.70;3.35;;;20.20;29.60;;;;;;5019030;28;20022;-74
2021/12/21 13:08:46;;;;;;;5.28;3.03;;;20.30;29.60;;;;;;5018605;28;20022;-72
2021/12/21 13:11:17;;;;;;;6.28;3.10;;;20.30;29.70;;;;;;5019308;28;20037;-71
2021/12/21 13:13:46;;;;;;;8.93;3.90;;;20.30;29.70;;;;;;5017989;28;20397;-71
2021/12/21 13:16:15;;;;;;;7.93;3.40;;;20.30;29.60;;;;;;5019611;28;20057;-71
2021/12/21 13:18:50;;;;;;;6.13;3.45;;;20.30;29.70;;;;;;5020046;28;20029;-71
2021/12/21 13:21:23;;;;;;;5.13;2.97;;;20.30;29.70;;;;;;5020037;28;20105;-72
2021/12/21 13:23:51;;;;;;;7.05;3.65;;;20.30;29.80;;;;;;5019605;28;20493;-72
2021/12/21 13:26:18;;;;;;;6.05;3.13;;;20.30;29.70;;;;;;5020054;28;20049;-71
2021/12/21 13:28:53;;;;;;;5.38;3.20;;;20.30;29.80;;;;;;5019156;28;20025;-71
2021/12/21 13:31:21;;;;;;;5.55;2.65;;;20.30;29.70;;;;;;4998445;28;20041;-71
2021/12/21 13:33:53;;;;;;;9.35;3.00;;;20.30;29.80;;;;;;5010102;28;20482;-71
2021/12/21 13:36:30;;;;;;;7.03;2.95;;;20.30;29.70;;;;;;5018905;28;20037;-71
2021/12/21 13:38:56;;;;;;;5.18;3.15;;;20.30;29.70;;;;;;5019125;28;20117;-72
2021/12/21 13:41:22;;;;;;;5.85;3.45;;;20.30;29.80;;;;;;5017878;28;20014;-71